Mindenmines, Missouri
Current Conditions -  °F | °C
As of 4:55 PM on Tuesday 21 Oct 2014 (Local Time) from KPTS Reporting Station
Clear Clear  
Wind Chill: 76°   Ceiling: Unl
Heat Index: 78°   Visibility: 10mi
Dew Point: 52°   Wind: 0mph
Humidity: 43%   Direction: NA
Pressure: 30.06"   Gusts: NA
Location:  37.47°N, 94.59°W
Report Text: KPTS 212155Z AUTO 00000KT 10SM CLR 25/11 A3006 RMK AO2 T02450111
Loading
Personal Weather Stations






























Interactive Weather Map
Tropical Storm Tracking
New forecast layout! Learn more

10-Day Weather Forecast

Advertisements
Track Severe Weather on mobile